Time;durP1;ratioP1;P1;durP2;ratioP2;P2;SDS_P1;SDS_P2;PMS_P1;PMS_P2;Temp;Humidity;BMP_temperature;BMP_pressure;BME280_temperature;BME280_humidity;BME280_pressure;Samples;Min_cycle;Max_cycle;Signal;HPM_P1;HPM_P2
2023/02/19 00:00:00;;;;;;;1.60;1.50;;;10.20;99.90;;;;;;4978278;28;20584;-85
2023/02/19 00:02:26;;;;;;;2.60;1.90;;;10.30;99.90;;;;;;4975720;28;20050;-85
2023/02/19 00:04:51;;;;;;;1.60;1.50;;;10.30;99.90;;;;;;4977932;28;20095;-84
2023/02/19 00:07:17;;;;;;;1.70;1.48;;;10.30;99.90;;;;;;4978346;28;20404;-84
2023/02/19 00:09:42;;;;;;;1.10;1.00;;;10.30;99.90;;;;;;4974847;28;20057;-84
2023/02/19 00:12:08;;;;;;;1.40;1.30;;;10.20;99.90;;;;;;4973082;28;20049;-84
2023/02/19 00:14:33;;;;;;;1.48;1.38;;;10.10;99.90;;;;;;4980616;28;20035;-84
2023/02/19 00:16:59;;;;;;;1.15;1.13;;;10.20;99.90;;;;;;4977896;28;20065;-85
2023/02/19 00:19:25;;;;;;;1.85;1.42;;;10.20;99.90;;;;;;4975691;28;20031;-84
2023/02/19 00:21:52;;;;;;;1.98;1.40;;;10.20;99.90;;;;;;4980658;28;20030;-84
2023/02/19 00:24:18;;;;;;;1.38;1.30;;;10.20;99.90;;;;;;4974391;28;20125;-84
2023/02/19 00:26:45;;;;;;;1.52;1.30;;;10.20;99.90;;;;;;4979524;28;20518;-85
2023/02/19 00:29:16;;;;;;;1.48;1.38;;;10.20;99.90;;;;;;4975703;28;20121;-84
2023/02/19 00:31:42;;;;;;;1.27;1.17;;;10.10;99.90;;;;;;4975239;28;20114;-84
2023/02/19 00:34:09;;;;;;;2.08;1.30;;;10.10;99.90;;;;;;4979101;28;20091;-84
2023/02/19 00:36:37;;;;;;;3.35;1.55;;;10.20;99.90;;;;;;4978389;28;20039;-84
2023/02/19 00:39:04;;;;;;;1.65;1.55;;;10.10;99.90;;;;;;4976759;28;20169;-84
2023/02/19 00:41:29;;;;;;;2.65;1.80;;;10.10;99.90;;;;;;4977255;28;20042;-84
2023/02/19 00:44:04;;;;;;;1.80;1.40;;;10.00;99.90;;;;;;4975422;28;20488;-85
2023/02/19 00:46:36;;;;;;;2.10;1.50;;;10.10;99.90;;;;;;4975864;28;20046;-84
2023/02/19 00:49:03;;;;;;;1.20;1.10;;;10.00;99.90;;;;;;4972858;28;20039;-84
2023/02/19 00:51:32;;;;;;;1.77;1.67;;;10.10;99.90;;;;;;4976298;28;20534;-84
2023/02/19 00:53:58;;;;;;;1.23;1.23;;;10.10;99.90;;;;;;4979352;28;20034;-84
2023/02/19 00:56:24;;;;;;;1.65;1.55;;;10.10;99.90;;;;;;4975132;28;20031;-84
2023/02/19 00:58:49;;;;;;;1.23;1.15;;;10.10;99.90;;;;;;4971491;28;20062;-84
2023/02/19 01:01:15;;;;;;;1.90;1.30;;;10.20;99.90;;;;;;4973143;28;20038;-84
2023/02/19 01:03:41;;;;;;;1.33;1.23;;;10.10;99.90;;;;;;4972487;28;20094;-84
2023/02/19 01:06:09;;;;;;;1.13;0.98;;;10.10;99.90;;;;;;4973178;28;20031;-84
2023/02/19 01:08:36;;;;;;;3.80;1.63;;;10.10;99.90;;;;;;4980733;28;20034;-84
2023/02/19 01:11:03;;;;;;;1.83;1.70;;;10.10;99.90;;;;;;4985378;28;20043;-84
2023/02/19 01:13:29;;;;;;;1.67;1.42;;;10.10;99.90;;;;;;4981054;28;20031;-84
2023/02/19 01:16:09;;;;;;;1.45;1.35;;;10.10;99.90;;;;;;4977702;28;20031;-86
2023/02/19 01:18:35;;;;;;;1.48;1.05;;;10.10;99.90;;;;;;4976622;28;20031;-84
2023/02/19 01:21:11;;;;;;;1.40;1.30;;;10.10;99.90;;;;;;4980607;28;20034;-86
2023/02/19 01:23:37;;;;;;;1.50;0.85;;;10.00;99.90;;;;;;4980598;28;20029;-84
2023/02/19 01:26:08;;;;;;;2.10;1.50;;;10.00;99.90;;;;;;4975231;28;20041;-87
2023/02/19 01:28:34;;;;;;;1.10;1.10;;;10.00;99.90;;;;;;4976249;28;20109;-84
2023/02/19 01:31:05;;;;;;;1.45;1.35;;;10.00;99.90;;;;;;4979585;28;20061;-85
2023/02/19 01:33:31;;;;;;;2.28;1.55;;;10.00;99.90;;;;;;4977778;28;20089;-85
2023/02/19 01:35:56;;;;;;;1.23;1.15;;;9.90;99.90;;;;;;4978925;28;20031;-85
2023/02/19 01:38:22;;;;;;;1.60;1.50;;;9.90;99.90;;;;;;4978544;28;20162;-85
2023/02/19 01:40:59;;;;;;;2.03;1.40;;;10.00;99.90;;;;;;4979225;28;20479;-85
2023/02/19 01:43:26;;;;;;;2.33;1.45;;;10.00;99.90;;;;;;4981058;28;20046;-85
2023/02/19 01:45:52;;;;;;;1.70;1.60;;;9.90;99.90;;;;;;4977929;28;20051;-85
2023/02/19 01:48:34;;;;;;;3.60;2.13;;;10.00;99.90;;;;;;4978659;28;20041;-83
2023/02/19 01:51:07;;;;;;;1.38;1.02;;;10.00;99.90;;;;;;4973735;28;20023;-83
2023/02/19 01:53:37;;;;;;;1.27;1.20;;;10.00;99.90;;;;;;4974193;28;20647;-84
2023/02/19 01:56:03;;;;;;;1.52;1.42;;;10.00;99.90;;;;;;4977967;28;20042;-83
2023/02/19 01:58:33;;;;;;;1.25;1.10;;;10.10;99.90;;;;;;4980483;28;20066;-83
2023/02/19 02:01:00;;;;;;;1.50;1.15;;;10.10;99.90;;;;;;4978712;28;20039;-83
2023/02/19 02:03:27;;;;;;;1.50;1.40;;;10.10;99.90;;;;;;4975654;28;20142;-83
2023/02/19 02:06:18;;;;;;;1.67;1.55;;;10.10;99.90;;;;;;4978217;28;20427;-83
2023/02/19 02:11:29;;;;;;;1.60;1.50;;;10.10;99.90;;;;;;4977765;28;20046;-84
2023/02/19 02:13:56;;;;;;;1.60;1.50;;;10.10;99.90;;;;;;4979857;28;20035;-84
2023/02/19 02:16:30;;;;;;;1.75;1.65;;;10.10;99.90;;;;;;4977667;28;20037;-84
2023/02/19 02:18:55;;;;;;;1.60;1.50;;;10.00;99.90;;;;;;4973418;28;20033;-85
2023/02/19 02:21:29;;;;;;;1.55;1.35;;;10.00;99.90;;;;;;4974379;28;20117;-84
2023/02/19 02:24:11;;;;;;;1.48;1.38;;;10.00;99.90;;;;;;4976785;28;20062;-83
2023/02/19 02:26:51;;;;;;;1.45;1.33;;;10.00;99.90;;;;;;4977533;28;20050;-84
2023/02/19 02:29:27;;;;;;;1.38;1.38;;;10.00;99.90;;;;;;4976801;28;20031;-83
2023/02/19 02:32:01;;;;;;;1.30;1.30;;;9.90;99.90;;;;;;4972117;28;20054;-84
2023/02/19 02:34:34;;;;;;;1.15;1.15;;;9.90;99.90;;;;;;4972319;28;20032;-83
2023/02/19 02:37:09;;;;;;;2.33;1.40;;;9.80;99.90;;;;;;4962085;28;20031;-83
2023/02/19 02:39:37;;;;;;;1.27;1.17;;;9.80;99.90;;;;;;4969482;28;20046;-83
2023/02/19 02:47:41;;;;;;;1.85;1.75;;;9.70;99.90;;;;;;4976610;28;20045;-84
2023/02/19 02:50:33;;;;;;;2.17;1.20;;;9.70;99.90;;;;;;4978135;28;20038;-84
2023/02/19 02:55:52;;;;;;;2.03;1.52;;;9.70;99.90;;;;;;4980909;28;20041;-85
2023/02/19 02:58:39;;;;;;;1.45;1.35;;;9.70;99.90;;;;;;4977905;28;20033;-85
2023/02/19 03:04:27;;;;;;;1.58;1.48;;;9.50;99.90;;;;;;4987988;28;20042;-84
2023/02/19 03:07:02;;;;;;;2.03;1.52;;;9.30;99.90;;;;;;5013946;23;20046;-30
2023/02/19 03:09:39;;;;;;;2.05;1.77;;;9.30;99.90;;;;;;4999577;28;20446;-33
2023/02/19 03:20:38;;;;;;;1.80;1.70;;;9.20;99.90;;;;;;4998067;28;20628;-29
2023/02/19 03:23:06;;;;;;;1.40;1.30;;;9.10;99.90;;;;;;5001448;28;20508;-33
2023/02/19 03:29:21;;;;;;;2.00;1.75;;;9.10;99.90;;;;;;5003044;28;20045;-33
2023/02/19 03:31:12;;;;;;;1.55;1.45;;;9.10;99.90;;;;;;4997686;28;20069;-30
2023/02/19 03:33:40;;;;;;;4.85;2.22;;;9.10;99.90;;;;;;4997943;28;20391;-30
2023/02/19 03:36:09;;;;;;;2.00;1.90;;;9.10;99.90;;;;;;4998138;28;20452;-30
2023/02/19 03:38:52;;;;;;;2.90;1.95;;;9.10;99.90;;;;;;4999015;28;20543;-29
2023/02/19 03:41:44;;;;;;;5.13;2.67;;;9.10;99.90;;;;;;4996686;28;20029;-31
2023/02/19 03:44:29;;;;;;;1.73;1.50;;;9.10;99.90;;;;;;5003517;28;20030;-29
2023/02/19 03:47:18;;;;;;;3.10;2.20;;;9.00;99.90;;;;;;4994395;28;20518;-31
2023/02/19 03:50:02;;;;;;;2.72;1.50;;;9.00;99.90;;;;;;5000206;28;20152;-30
2023/02/19 03:52:36;;;;;;;1.50;1.40;;;9.00;99.90;;;;;;4995778;28;20470;-31
2023/02/19 03:55:04;;;;;;;1.60;1.50;;;8.90;99.90;;;;;;5002256;28;20116;-29
2023/02/19 03:57:44;;;;;;;1.42;1.30;;;8.90;99.90;;;;;;4995261;28;20471;-30
2023/02/19 04:00:16;;;;;;;1.85;1.70;;;8.90;99.90;;;;;;4997620;28;20045;-29
2023/02/19 04:03:09;;;;;;;2.28;1.73;;;8.90;99.90;;;;;;5002212;28;20403;-29
2023/02/19 04:05:40;;;;;;;1.50;1.40;;;8.80;99.90;;;;;;4999413;28;20033;-30
2023/02/19 04:08:16;;;;;;;1.50;1.40;;;8.80;99.90;;;;;;4997488;28;20497;-30
2023/02/19 04:10:44;;;;;;;1.13;1.13;;;8.70;99.90;;;;;;5003745;28;20064;-30
2023/02/19 04:13:21;;;;;;;1.27;1.23;;;8.70;99.90;;;;;;5004889;28;20026;-31
2023/02/19 04:15:49;;;;;;;1.77;1.67;;;8.70;99.90;;;;;;5003815;28;20042;-33
2023/02/19 04:18:20;;;;;;;0.98;0.98;;;8.60;99.90;;;;;;4997313;28;20034;-30
2023/02/19 04:20:47;;;;;;;1.20;1.10;;;8.60;99.90;;;;;;4995203;28;20037;-31
2023/02/19 04:23:16;;;;;;;1.60;1.42;;;8.60;99.90;;;;;;4997039;28;20046;-31
2023/02/19 04:25:45;;;;;;;2.78;2.10;;;8.60;99.90;;;;;;5000646;28;20038;-30
2023/02/19 04:28:13;;;;;;;1.52;1.42;;;8.70;99.90;;;;;;4995010;28;20038;-31
2023/02/19 04:30:39;;;;;;;1.98;1.52;;;8.60;99.90;;;;;;5002300;28;20026;-30
2023/02/19 04:33:05;;;;;;;1.50;1.40;;;8.70;99.90;;;;;;5005301;28;20072;-31
2023/02/19 04:35:30;;;;;;;2.35;1.60;;;8.60;99.90;;;;;;5004886;28;20657;-33
2023/02/19 04:37:56;;;;;;;1.60;1.50;;;8.70;99.90;;;;;;4999309;28;20062;-34
2023/02/19 04:40:22;;;;;;;1.70;1.60;;;8.70;99.90;;;;;;5003271;28;20069;-30
2023/02/19 04:42:47;;;;;;;1.35;1.25;;;8.60;99.90;;;;;;4998077;28;20374;-35
2023/02/19 04:45:13;;;;;;;2.72;1.60;;;8.60;99.90;;;;;;4997852;28;20089;-31
2023/02/19 04:47:40;;;;;;;2.50;1.95;;;8.70;99.90;;;;;;5002200;28;20084;-31
2023/02/19 04:50:06;;;;;;;1.88;1.40;;;8.70;99.90;;;;;;4994812;28;20025;-29
2023/02/19 04:52:32;;;;;;;2.00;1.23;;;8.60;99.90;;;;;;5004379;28;20488;-32
2023/02/19 04:54:58;;;;;;;1.95;1.70;;;8.70;99.90;;;;;;4996832;28;20033;-30
2023/02/19 04:57:24;;;;;;;2.08;1.95;;;8.60;99.90;;;;;;5008354;28;20034;-34
2023/02/19 04:59:50;;;;;;;2.13;1.92;;;8.70;99.90;;;;;;5009049;28;20083;-34
2023/02/19 05:02:16;;;;;;;1.70;1.60;;;8.60;99.90;;;;;;4996369;28;20509;-33
2023/02/19 05:04:41;;;;;;;2.38;1.60;;;8.60;99.90;;;;;;5002308;28;20030;-31
2023/02/19 05:07:07;;;;;;;1.10;1.10;;;8.60;99.90;;;;;;5005351;28;20434;-30
2023/02/19 05:09:33;;;;;;;1.75;1.60;;;8.70;99.90;;;;;;5006590;28;20106;-33
2023/02/19 05:11:58;;;;;;;1.20;1.13;;;8.70;99.90;;;;;;5000679;28;20121;-33
2023/02/19 05:14:24;;;;;;;1.52;1.42;;;8.70;99.90;;;;;;5000756;28;20125;-34
2023/02/19 05:16:50;;;;;;;1.90;1.00;;;8.60;99.90;;;;;;5007884;28;20113;-32
2023/02/19 05:19:15;;;;;;;0.77;0.77;;;8.60;99.90;;;;;;5006301;28;20121;-31
2023/02/19 05:21:41;;;;;;;1.63;1.52;;;8.60;99.90;;;;;;5006128;28;20033;-31
2023/02/19 05:24:08;;;;;;;2.33;1.08;;;8.60;99.90;;;;;;5001266;28;20030;-30
2023/02/19 05:26:33;;;;;;;1.80;1.70;;;8.60;99.90;;;;;;5000838;28;20036;-32
2023/02/19 05:28:59;;;;;;;1.10;1.02;;;8.60;99.90;;;;;;4997743;28;20438;-30
2023/02/19 05:31:25;;;;;;;1.45;1.35;;;8.70;99.90;;;;;;5018320;28;20044;-29
2023/02/19 05:33:51;;;;;;;1.65;1.55;;;8.60;99.90;;;;;;4999162;28;20534;-30
2023/02/19 05:36:20;;;;;;;2.58;1.95;;;8.60;99.90;;;;;;4998291;28;20028;-30
2023/02/19 05:38:46;;;;;;;9.88;1.50;;;8.60;99.90;;;;;;5009513;28;20025;-29
2023/02/19 05:41:17;;;;;;;3.85;1.88;;;8.60;99.90;;;;;;5000033;28;20053;-32
2023/02/19 05:43:45;;;;;;;1.60;1.50;;;8.60;99.90;;;;;;5003468;28;20025;-30
2023/02/19 05:46:12;;;;;;;1.93;1.80;;;8.60;99.90;;;;;;4993900;28;20037;-29
2023/02/19 05:48:38;;;;;;;1.98;1.85;;;8.60;99.90;;;;;;5001638;28;20538;-30
2023/02/19 05:51:10;;;;;;;1.80;1.70;;;8.60;99.90;;;;;;4999662;28;20034;-30
2023/02/19 05:53:37;;;;;;;2.30;1.48;;;8.60;99.90;;;;;;5018991;28;20021;-30
2023/02/19 05:56:04;;;;;;;1.88;1.77;;;8.60;99.90;;;;;;5004095;28;20026;-29
2023/02/19 05:58:30;;;;;;;1.98;1.88;;;8.60;99.90;;;;;;5002746;28;20023;-30
2023/02/19 06:00:56;;;;;;;1.83;1.73;;;8.50;99.90;;;;;;5005889;28;20121;-30
2023/02/19 06:03:22;;;;;;;2.03;1.52;;;8.50;99.90;;;;;;5007011;28;20041;-30
2023/02/19 06:05:48;;;;;;;2.10;2.00;;;8.50;99.90;;;;;;4997675;28;20037;-29
2023/02/19 06:08:14;;;;;;;1.52;1.42;;;8.50;99.90;;;;;;5000508;28;20409;-29
2023/02/19 06:10:41;;;;;;;1.10;1.10;;;8.50;99.90;;;;;;5010879;28;20133;-30
2023/02/19 06:13:08;;;;;;;4.03;2.03;;;8.50;99.90;;;;;;5001825;28;20030;-30
2023/02/19 06:15:35;;;;;;;1.77;1.67;;;8.40;99.90;;;;;;5008031;28;20030;-31
2023/02/19 06:18:02;;;;;;;1.75;1.55;;;8.40;99.90;;;;;;4999254;28;20042;-31
2023/02/19 06:20:28;;;;;;;1.35;1.25;;;8.40;99.90;;;;;;5005033;28;20029;-29
2023/02/19 06:22:54;;;;;;;2.47;1.70;;;8.40;99.90;;;;;;5004604;28;20484;-29
2023/02/19 06:25:19;;;;;;;1.80;1.30;;;8.40;99.90;;;;;;4999502;28;20037;-30
2023/02/19 06:27:46;;;;;;;2.20;1.48;;;8.40;99.90;;;;;;5006826;28;20033;-30
2023/02/19 06:30:12;;;;;;;2.05;1.77;;;8.40;99.90;;;;;;4986921;28;20026;-29
2023/02/19 06:32:38;;;;;;;1.52;1.40;;;8.30;99.90;;;;;;4999913;28;20105;-30
2023/02/19 06:35:04;;;;;;;2.33;2.13;;;8.30;99.90;;;;;;5003312;28;20574;-31
2023/02/19 06:37:30;;;;;;;1.90;1.80;;;8.30;99.90;;;;;;5002099;28;20053;-29
2023/02/19 06:39:56;;;;;;;3.42;2.30;;;8.30;99.90;;;;;;5006208;28;20075;-28
2023/02/19 06:42:22;;;;;;;5.28;1.73;;;8.30;99.90;;;;;;5006310;28;20402;-29
2023/02/19 06:44:48;;;;;;;1.35;1.25;;;8.30;99.90;;;;;;5002246;28;20044;-28
2023/02/19 06:47:13;;;;;;;1.77;1.17;;;8.20;99.90;;;;;;5005678;28;20387;-32
2023/02/19 06:49:39;;;;;;;1.80;1.70;;;8.20;99.90;;;;;;4994627;28;20352;-29
2023/02/19 06:52:05;;;;;;;1.08;1.08;;;8.20;99.90;;;;;;5005682;28;20034;-31
2023/02/19 06:54:32;;;;;;;2.25;2.05;;;8.10;99.90;;;;;;5006969;28;20048;-30
2023/02/19 06:56:58;;;;;;;1.45;1.33;;;8.10;99.90;;;;;;5010752;28;20034;-29
2023/02/19 06:59:24;;;;;;;1.77;1.30;;;8.10;99.90;;;;;;5003686;28;20038;-30
2023/02/19 07:01:50;;;;;;;2.13;1.73;;;8.00;99.90;;;;;;4999055;28;20466;-31
2023/02/19 07:04:16;;;;;;;1.55;1.45;;;8.00;99.90;;;;;;5007069;28;20038;-31
2023/02/19 07:06:43;;;;;;;1.33;1.25;;;8.00;99.90;;;;;;4988869;28;20042;-29
2023/02/19 07:09:15;;;;;;;1.30;1.20;;;8.00;99.90;;;;;;5006200;28;20114;-29
2023/02/19 07:11:41;;;;;;;1.10;1.10;;;7.90;99.90;;;;;;4995341;28;20105;-31
2023/02/19 07:14:12;;;;;;;1.25;1.20;;;8.00;99.90;;;;;;4986737;28;20034;-31
2023/02/19 07:16:39;;;;;;;2.13;1.73;;;8.00;99.90;;;;;;5005494;28;20036;-30
2023/02/19 07:19:10;;;;;;;1.70;1.60;;;7.90;99.90;;;;;;5005480;28;20021;-29
2023/02/19 07:21:37;;;;;;;1.77;1.38;;;8.00;99.90;;;;;;5002195;28;20022;-29
2023/02/19 07:24:05;;;;;;;2.17;1.98;;;8.00;99.90;;;;;;4998862;28;20083;-33
2023/02/19 07:26:30;;;;;;;1.40;1.37;;;8.00;99.90;;;;;;4987081;28;20486;-29
2023/02/19 07:28:56;;;;;;;3.03;1.92;;;8.00;99.90;;;;;;4997609;28;20026;-29
2023/02/19 07:31:23;;;;;;;2.22;1.88;;;8.00;99.90;;;;;;5003289;28;20443;-29
2023/02/19 07:33:49;;;;;;;2.25;2.15;;;8.00;99.90;;;;;;5002284;28;20045;-34
2023/02/19 07:36:16;;;;;;;2.85;2.17;;;8.10;99.90;;;;;;5009095;28;20037;-29
2023/02/19 07:38:42;;;;;;;2.20;2.00;;;8.00;99.90;;;;;;5003719;28;20033;-29
2023/02/19 07:41:08;;;;;;;2.83;2.53;;;8.10;99.90;;;;;;5002941;28;20703;-29
2023/02/19 07:43:37;;;;;;;1.33;1.23;;;8.10;99.90;;;;;;5000475;28;20065;-30
2023/02/19 07:46:08;;;;;;;1.58;1.48;;;8.10;99.90;;;;;;4999867;28;20034;-29
2023/02/19 07:48:39;;;;;;;1.80;1.70;;;8.20;99.90;;;;;;5003039;28;20438;-31
2023/02/19 07:51:06;;;;;;;2.28;2.08;;;8.20;99.90;;;;;;4984440;28;20030;-29
2023/02/19 07:53:33;;;;;;;2.38;2.17;;;8.20;99.90;;;;;;5000080;28;20029;-30
2023/02/19 07:56:00;;;;;;;3.05;2.45;;;8.30;99.90;;;;;;4994257;28;20105;-33
2023/02/19 07:58:26;;;;;;;3.38;2.40;;;8.30;99.90;;;;;;5005658;28;20042;-32
2023/02/19 08:00:52;;;;;;;2.80;1.92;;;8.30;99.90;;;;;;4997680;28;20061;-30
2023/02/19 08:03:18;;;;;;;1.52;1.42;;;8.30;99.90;;;;;;5001917;28;20422;-30
2023/02/19 08:05:44;;;;;;;2.47;2.00;;;8.30;99.90;;;;;;4996456;28;20507;-30
2023/02/19 08:08:12;;;;;;;3.35;3.05;;;8.40;99.90;;;;;;5003644;28;20049;-30
2023/02/19 08:13:24;;;;;;;2.67;1.63;;;8.40;99.90;;;;;;5005560;28;19978;-30
2023/02/19 08:15:57;;;;;;;2.17;1.90;;;8.50;99.90;;;;;;5007178;28;20068;-29
2023/02/19 08:18:26;;;;;;;1.35;1.25;;;8.50;99.90;;;;;;5009263;28;20042;-29
2023/02/19 08:20:54;;;;;;;1.70;1.60;;;8.50;99.90;;;;;;5019388;28;20058;-30
2023/02/19 08:23:21;;;;;;;2.60;2.40;;;8.50;99.90;;;;;;5008150;28;20387;-29
2023/02/19 08:25:49;;;;;;;3.78;3.15;;;8.50;99.90;;;;;;5008249;28;20060;-31
2023/02/19 08:28:16;;;;;;;3.15;2.58;;;8.50;99.90;;;;;;5005592;28;20131;-29
2023/02/19 08:30:44;;;;;;;1.80;1.45;;;8.50;99.90;;;;;;5003612;28;20042;-30
2023/02/19 08:33:18;;;;;;;2.42;2.15;;;8.60;99.90;;;;;;5005078;28;20030;-32
2023/02/19 08:35:44;;;;;;;1.63;1.10;;;8.50;99.90;;;;;;5004270;28;20052;-29
2023/02/19 08:38:12;;;;;;;1.45;1.35;;;8.50;99.90;;;;;;5003289;28;20022;-29
2023/02/19 08:40:39;;;;;;;1.25;1.20;;;8.50;99.90;;;;;;5007918;28;20041;-28
2023/02/19 08:43:11;;;;;;;2.75;1.90;;;8.40;99.90;;;;;;5005819;28;20119;-29
2023/02/19 08:45:38;;;;;;;2.38;1.38;;;8.40;99.90;;;;;;5004563;28;20072;-31
2023/02/19 08:48:04;;;;;;;1.73;1.35;;;8.40;99.90;;;;;;5008893;28;20030;-30
2023/02/19 08:50:30;;;;;;;1.10;1.02;;;8.40;99.90;;;;;;5006017;28;20048;-31
2023/02/19 08:52:58;;;;;;;3.70;2.10;;;8.40;99.90;;;;;;5003343;28;20434;-31
2023/02/19 08:55:24;;;;;;;2.25;1.40;;;8.40;99.90;;;;;;5009468;28;20038;-30
2023/02/19 08:57:50;;;;;;;0.85;0.85;;;8.40;99.90;;;;;;5006513;28;20128;-29
2023/02/19 09:00:17;;;;;;;1.95;1.30;;;8.30;99.90;;;;;;5014502;28;20036;-30
2023/02/19 09:02:43;;;;;;;1.08;1.00;;;8.30;99.90;;;;;;4988883;28;20529;-30
2023/02/19 09:05:11;;;;;;;2.47;1.67;;;8.30;99.90;;;;;;5005831;28;20038;-30
2023/02/19 09:07:38;;;;;;;3.25;1.35;;;8.20;99.90;;;;;;4995483;28;20487;-30
2023/02/19 09:10:05;;;;;;;1.58;1.20;;;8.20;99.90;;;;;;5005602;28;20029;-30
2023/02/19 09:12:34;;;;;;;1.13;1.02;;;8.20;99.90;;;;;;4998512;28;20022;-32
2023/02/19 09:15:01;;;;;;;0.40;0.40;;;8.30;99.90;;;;;;5004762;28;20026;-31
2023/02/19 09:17:27;;;;;;;0.70;0.70;;;8.40;99.90;;;;;;5010462;28;20037;-32
2023/02/19 09:19:57;;;;;;;0.45;0.45;;;8.70;99.90;;;;;;5005957;28;20363;-30
2023/02/19 09:22:24;;;;;;;0.95;0.68;;;8.80;99.90;;;;;;5004089;28;20072;-29
2023/02/19 09:24:50;;;;;;;0.90;0.90;;;8.80;99.90;;;;;;5000093;28;20066;-30
2023/02/19 09:27:17;;;;;;;0.70;0.70;;;9.00;99.90;;;;;;5012182;28;20423;-30
2023/02/19 09:29:43;;;;;;;0.90;0.90;;;9.10;99.90;;;;;;5007358;28;20030;-30
2023/02/19 09:32:10;;;;;;;0.70;0.70;;;9.10;99.90;;;;;;4994887;28;20614;-35
2023/02/19 09:34:37;;;;;;;0.70;0.70;;;9.10;99.90;;;;;;5002910;28;20053;-31
2023/02/19 09:37:04;;;;;;;0.70;0.70;;;9.10;99.90;;;;;;5006373;28;20454;-30
2023/02/19 09:39:30;;;;;;;0.60;0.60;;;9.20;99.90;;;;;;5001854;28;20482;-34
2023/02/19 09:42:00;;;;;;;0.77;0.77;;;9.20;99.90;;;;;;5005887;28;20045;-29
2023/02/19 09:44:31;;;;;;;1.38;0.70;;;9.30;99.90;;;;;;5002883;28;20109;-29
2023/02/19 09:46:59;;;;;;;0.65;0.65;;;9.30;99.90;;;;;;5005809;28;20514;-30
2023/02/19 09:49:34;;;;;;;0.70;0.70;;;9.40;99.90;;;;;;4999966;28;20030;-31
2023/02/19 09:52:08;;;;;;;0.63;0.63;;;9.40;99.90;;;;;;5003324;28;20154;-30
2023/02/19 09:54:36;;;;;;;1.45;0.80;;;9.40;99.90;;;;;;4997753;28;20057;-30
2023/02/19 09:57:03;;;;;;;0.93;0.90;;;9.40;99.90;;;;;;5003337;28;20578;-30
2023/02/19 10:00:00;;;;;;;0.50;0.50;;;9.40;99.90;;;;;;4999823;28;20027;-30
2023/02/19 10:02:26;;;;;;;0.90;0.90;;;9.40;99.90;;;;;;4999592;28;20038;-32
2023/02/19 10:04:53;;;;;;;0.90;0.90;;;9.40;99.90;;;;;;5004312;28;20077;-30
2023/02/19 10:07:22;;;;;;;0.70;0.70;;;9.40;99.90;;;;;;5005267;28;20125;-32
2023/02/19 10:09:59;;;;;;;0.60;0.60;;;9.40;99.90;;;;;;5002120;28;20030;-29
2023/02/19 10:12:31;;;;;;;0.95;0.95;;;9.40;99.90;;;;;;5000243;28;20026;-30
2023/02/19 10:15:08;;;;;;;0.50;0.50;;;9.40;99.90;;;;;;4990085;28;20037;-30
2023/02/19 10:17:34;;;;;;;0.73;0.73;;;9.60;99.90;;;;;;5003095;28;20109;-30
2023/02/19 10:20:03;;;;;;;1.90;0.57;;;9.70;99.90;;;;;;5009258;28;20030;-32
2023/02/19 10:22:34;;;;;;;0.70;0.70;;;9.70;99.90;;;;;;5001694;28;20037;-30
2023/02/19 10:25:02;;;;;;;0.63;0.63;;;9.90;99.90;;;;;;4997879;28;20605;-31
2023/02/19 10:27:31;;;;;;;0.50;0.50;;;10.20;99.90;;;;;;5006701;28;20030;-31
2023/02/19 10:29:59;;;;;;;0.80;0.70;;;10.20;99.90;;;;;;4992398;28;20117;-32
2023/02/19 10:32:28;;;;;;;1.05;0.90;;;10.20;99.90;;;;;;5003625;28;20517;-31
2023/02/19 10:35:11;;;;;;;0.50;0.50;;;10.20;99.90;;;;;;4990769;28;20125;-30
2023/02/19 10:37:49;;;;;;;0.60;0.60;;;10.20;99.90;;;;;;4998305;28;20030;-34
2023/02/19 10:40:17;;;;;;;0.70;0.70;;;10.00;99.90;;;;;;5000069;28;20037;-31
2023/02/19 10:42:48;;;;;;;0.50;0.50;;;9.70;99.90;;;;;;4995871;28;20057;-30
2023/02/19 10:45:21;;;;;;;0.60;0.60;;;9.60;99.90;;;;;;5005946;28;20100;-31
2023/02/19 10:47:48;;;;;;;0.40;0.40;;;9.20;99.90;;;;;;5000727;28;20442;-31
2023/02/19 10:50:44;;;;;;;0.50;0.50;;;9.20;99.90;;;;;;4995431;28;20017;-30
2023/02/19 10:53:22;;;;;;;0.75;0.70;;;9.20;99.90;;;;;;4996237;28;20235;-33
2023/02/19 10:56:04;;;;;;;0.50;0.50;;;9.20;99.90;;;;;;4998852;28;20117;-31
2023/02/19 10:58:33;;;;;;;0.60;0.60;;;9.30;99.90;;;;;;5002271;28;20579;-31
2023/02/19 11:01:18;;;;;;;0.47;0.47;;;9.40;99.90;;;;;;5003018;28;20037;-31
2023/02/19 11:03:46;;;;;;;0.80;0.80;;;9.50;99.90;;;;;;5006585;28;20034;-30
2023/02/19 11:06:14;;;;;;;;;;;9.70;99.90;;;;;;5004693;28;20061;-31
2023/02/19 11:08:57;;;;;;;0.70;0.70;;;10.10;99.90;;;;;;5000853;28;19964;-30
2023/02/19 11:11:27;;;;;;;0.95;0.50;;;10.30;99.90;;;;;;4998135;28;20046;-30
2023/02/19 11:13:55;;;;;;;0.75;0.75;;;10.40;99.90;;;;;;4986181;28;20037;-30
2023/02/19 11:16:22;;;;;;;0.82;0.80;;;10.20;99.90;;;;;;5002762;28;20028;-31
2023/02/19 11:18:56;;;;;;;0.75;0.75;;;10.30;99.90;;;;;;5002752;28;20034;-30
2023/02/19 11:21:31;;;;;;;0.82;0.50;;;10.40;99.90;;;;;;5003275;28;20040;-33
2023/02/19 11:24:01;;;;;;;0.70;0.70;;;10.60;99.90;;;;;;5004356;28;20060;-31
2023/02/19 11:26:37;;;;;;;0.60;0.60;;;10.30;99.90;;;;;;4996114;28;20037;-28
2023/02/19 11:29:18;;;;;;;0.63;0.63;;;10.60;99.90;;;;;;4994839;28;20087;-29
2023/02/19 11:31:45;;;;;;;1.13;0.70;;;10.30;99.90;;;;;;5006605;28;20547;-30
2023/02/19 11:34:13;;;;;;;1.15;0.80;;;9.90;99.90;;;;;;5005938;28;20033;-30
2023/02/19 11:36:40;;;;;;;;;;;9.50;99.90;;;;;;5000418;28;20023;-30
2023/02/19 11:39:15;;;;;;;1.13;0.98;;;9.10;99.90;;;;;;4999982;28;19916;-29
2023/02/19 11:42:08;;;;;;;0.80;0.80;;;8.80;99.90;;;;;;5007643;28;20022;-29
2023/02/19 11:44:54;;;;;;;1.20;0.93;;;8.60;99.90;;;;;;4994594;28;20064;-30
2023/02/19 11:48:01;;;;;;;1.88;0.73;;;8.40;99.90;;;;;;4997075;28;20061;-29
2023/02/19 11:50:59;;;;;;;0.98;0.88;;;8.30;99.90;;;;;;4997031;28;20041;-30
2023/02/19 11:53:27;;;;;;;;;;;8.30;99.90;;;;;;4986957;28;20026;-29
2023/02/19 11:56:05;;;;;;;0.82;0.80;;;8.30;99.90;;;;;;4998179;28;19913;-29
2023/02/19 11:59:12;;;;;;;0.80;0.80;;;8.40;99.90;;;;;;5004903;28;20029;-29
2023/02/19 12:01:56;;;;;;;0.80;0.80;;;8.60;99.90;;;;;;5010921;28;20038;-31
2023/02/19 12:04:24;;;;;;;1.05;1.00;;;8.70;99.90;;;;;;4997686;28;20416;-30
2023/02/19 12:07:11;;;;;;;0.57;0.57;;;8.90;99.90;;;;;;5000250;28;20582;-30
2023/02/19 12:09:42;;;;;;;0.70;0.70;;;8.80;99.90;;;;;;5001475;28;20071;-30
2023/02/19 12:12:20;;;;;;;0.60;0.60;;;9.00;99.90;;;;;;4998124;28;20038;-34
2023/02/19 12:15:06;;;;;;;0.40;0.40;;;9.20;99.90;;;;;;5003283;28;20100;-32
2023/02/19 12:18:02;;;;;;;0.77;0.75;;;9.20;99.90;;;;;;4998019;28;20113;-30
2023/02/19 12:20:40;;;;;;;1.15;0.80;;;9.40;99.90;;;;;;4999980;28;20026;-31
2023/02/19 12:23:44;;;;;;;1.05;1.00;;;9.40;99.90;;;;;;5004813;28;20032;-33
2023/02/19 12:26:25;;;;;;;2.05;0.93;;;9.60;99.90;;;;;;4998994;28;20049;-33
2023/02/19 12:29:10;;;;;;;0.82;0.57;;;9.70;99.90;;;;;;5008333;28;20075;-30
2023/02/19 12:31:41;;;;;;;1.08;0.90;;;9.80;99.90;;;;;;5007778;28;20035;-32
2023/02/19 12:34:31;;;;;;;1.45;0.70;;;9.80;99.90;;;;;;5002810;28;20450;-32
2023/02/19 12:37:35;;;;;;;0.57;0.50;;;10.00;99.90;;;;;;4998619;28;20805;-31
2023/02/19 12:40:38;;;;;;;1.05;0.77;;;10.10;99.90;;;;;;4999048;28;20028;-35
2023/02/19 12:43:10;;;;;;;3.63;1.02;;;10.10;99.90;;;;;;5004886;28;20492;-32
2023/02/19 12:45:44;;;;;;;1.95;0.90;;;10.00;99.90;;;;;;5003749;28;20482;-31
2023/02/19 12:48:27;;;;;;;0.75;0.75;;;10.00;99.90;;;;;;5006913;28;20486;-32
2023/02/19 12:51:16;;;;;;;1.23;1.13;;;10.10;99.90;;;;;;4998396;28;20037;-33
2023/02/19 12:54:01;;;;;;;0.90;0.90;;;10.10;99.90;;;;;;5001488;28;20046;-35
2023/02/19 12:57:02;;;;;;;0.50;0.50;;;10.00;99.90;;;;;;5006612;28;20482;-32
2023/02/19 12:59:40;;;;;;;1.02;0.90;;;10.10;99.90;;;;;;5006195;28;20049;-31
2023/02/19 13:02:16;;;;;;;0.60;0.60;;;10.30;99.90;;;;;;5008631;28;20153;-31
2023/02/19 13:05:25;;;;;;;0.60;0.60;;;10.20;99.90;;;;;;4999227;28;20053;-34
2023/02/19 13:08:03;;;;;;;0.60;0.60;;;10.30;99.90;;;;;;5006637;28;20044;-34
2023/02/19 13:10:50;;;;;;;0.68;0.68;;;10.20;99.90;;;;;;5006320;28;20399;-33
2023/02/19 13:13:26;;;;;;;0.50;0.50;;;10.30;99.90;;;;;;5003990;28;20018;-33
2023/02/19 13:15:57;;;;;;;0.70;0.70;;;10.30;99.90;;;;;;5000813;28;20030;-32
2023/02/19 13:18:31;;;;;;;1.60;0.70;;;10.10;99.90;;;;;;5000022;28;20038;-31
2023/02/19 13:20:57;;;;;;;1.17;0.82;;;10.00;99.90;;;;;;5001954;28;20079;-33
2023/02/19 13:26:20;;;;;;;0.63;0.63;;;10.30;99.90;;;;;;5001844;28;20564;-33
2023/02/19 13:29:11;;;;;;;0.85;0.80;;;10.60;99.90;;;;;;5004208;28;20049;-32
2023/02/19 13:31:58;;;;;;;1.63;1.10;;;10.60;99.90;;;;;;5017593;28;20101;-31
2023/02/19 13:35:23;;;;;;;1.27;0.90;;;10.40;99.90;;;;;;5006366;28;20418;-35
2023/02/19 13:37:50;;;;;;;0.40;0.40;;;10.30;99.90;;;;;;5021120;28;20770;-31
2023/02/19 13:40:30;;;;;;;0.50;0.50;;;10.20;99.90;;;;;;5021117;28;21686;-34
2023/02/19 13:42:59;;;;;;;0.60;0.60;;;10.20;99.90;;;;;;5009446;28;20081;-34
2023/02/19 13:45:31;;;;;;;;;;;10.20;99.90;;;;;;5005251;28;20491;-31
2023/02/19 13:47:56;;;;;;;0.70;0.70;;;10.10;99.90;;;;;;5006286;28;19913;-35